Time;durP1;ratioP1;P1;durP2;ratioP2;P2;SDS_P1;SDS_P2;PMS_P1;PMS_P2;Temp;Humidity;BMP_temperature;BMP_pressure;BME280_temperature;BME280_humidity;BME280_pressure;Samples;Min_cycle;Max_cycle;Signal;HPM_P1;HPM_P2
2021/05/23 00:02:05;;;;;;;11.13;6.07;;;10.80;99.90;;;;;;5092935;28;20617;-77
2021/05/23 00:04:31;;;;;;;10.87;6.50;;;10.70;99.90;;;;;;5092792;28;20198;-77
2021/05/23 00:06:58;;;;;;;9.83;5.80;;;10.70;99.90;;;;;;5092699;28;20691;-78
2021/05/23 00:09:25;;;;;;;15.90;5.77;;;10.50;99.90;;;;;;5092662;28;20651;-77
2021/05/23 00:11:52;;;;;;;13.33;6.20;;;10.50;99.90;;;;;;5092852;28;20201;-77
2021/05/23 00:14:19;;;;;;;11.50;6.63;;;10.40;99.90;;;;;;5092351;28;20259;-77
2021/05/23 00:16:47;;;;;;;15.40;6.77;;;10.40;99.90;;;;;;5093017;28;20571;-77
2021/05/23 00:19:13;;;;;;;14.63;6.67;;;10.40;99.90;;;;;;5093233;28;20277;-77
2021/05/23 00:21:40;;;;;;;18.67;6.60;;;10.50;99.90;;;;;;5090368;28;20224;-77
2021/05/23 00:24:09;;;;;;;14.80;6.97;;;10.50;99.90;;;;;;5092571;28;20275;-77
2021/05/23 00:26:36;;;;;;;15.40;6.47;;;10.60;99.90;;;;;;5092398;28;20647;-77
2021/05/23 00:29:03;;;;;;;16.80;6.73;;;10.50;99.90;;;;;;5092560;28;20200;-78
2021/05/23 00:31:29;;;;;;;14.53;7.13;;;10.50;99.90;;;;;;5092410;28;20262;-78
2021/05/23 00:33:56;;;;;;;11.93;7.40;;;10.50;99.90;;;;;;5092108;28;20212;-78
2021/05/23 00:36:23;;;;;;;13.90;7.17;;;10.60;99.90;;;;;;5092414;28;20251;-77
2021/05/23 00:38:49;;;;;;;15.93;7.40;;;10.60;99.90;;;;;;5092489;28;20197;-77
2021/05/23 00:41:16;;;;;;;20.97;7.70;;;10.60;99.90;;;;;;5092221;28;20284;-77
2021/05/23 00:43:43;;;;;;;14.87;7.63;;;10.60;99.90;;;;;;5092464;28;20288;-77
2021/05/23 00:46:09;;;;;;;17.33;8.33;;;10.60;99.90;;;;;;5092550;28;20195;-76
2021/05/23 00:48:35;;;;;;;12.73;7.87;;;10.50;99.90;;;;;;5092141;28;20702;-77
2021/05/23 00:51:03;;;;;;;15.93;7.97;;;10.60;99.90;;;;;;5094410;28;20288;-77
2021/05/23 00:53:29;;;;;;;14.33;8.13;;;10.60;99.90;;;;;;5096664;28;20224;-77
2021/05/23 00:55:56;;;;;;;15.80;8.33;;;10.60;99.90;;;;;;5095295;28;20189;-78
2021/05/23 00:58:22;;;;;;;17.47;7.90;;;10.70;99.90;;;;;;5096455;28;20687;-78
2021/05/23 01:01:21;;;;;;;17.50;8.50;;;10.70;99.90;;;;;;5096851;28;20280;-78
2021/05/23 01:03:58;;;;;;;15.50;7.93;;;10.70;99.90;;;;;;5097287;28;20234;-77
2021/05/23 01:06:28;;;;;;;21.07;7.93;;;10.70;99.90;;;;;;5097176;28;20304;-77
2021/05/23 01:08:55;;;;;;;23.53;9.53;;;10.70;99.90;;;;;;5098185;28;20204;-78
2021/05/23 01:12:09;;;;;;;15.77;7.90;;;10.70;99.90;;;;;;5096523;28;20200;-77
2021/05/23 01:14:50;;;;;;;16.73;8.10;;;10.80;99.90;;;;;;5095034;28;20263;-77
2021/05/23 01:17:20;;;;;;;18.00;8.33;;;10.70;99.90;;;;;;5091995;28;20201;-77
2021/05/23 01:20:26;;;;;;;22.47;8.27;;;10.70;99.90;;;;;;5099943;28;20381;-77
2021/05/23 01:23:06;;;;;;;20.20;7.47;;;10.70;99.90;;;;;;5081792;28;20631;-78
2021/05/23 01:25:38;;;;;;;22.80;8.10;;;10.70;99.90;;;;;;5099788;28;20201;-77
2021/05/23 01:28:07;;;;;;;17.00;7.80;;;10.60;99.90;;;;;;5098775;28;20217;-78
2021/05/23 01:30:42;;;;;;;24.23;7.90;;;10.60;99.90;;;;;;5099385;28;20200;-78
2021/05/23 01:33:08;;;;;;;16.73;7.70;;;10.60;99.90;;;;;;5098723;28;20224;-77
2021/05/23 01:35:36;;;;;;;19.20;8.43;;;10.60;99.90;;;;;;5097721;28;20237;-77
2021/05/23 01:38:06;;;;;;;19.63;8.47;;;10.60;99.90;;;;;;5094301;28;20290;-78
2021/05/23 01:40:35;;;;;;;19.97;8.13;;;10.60;99.90;;;;;;5076135;28;20208;-78
2021/05/23 01:43:02;;;;;;;18.07;7.93;;;10.60;99.90;;;;;;5076878;28;20256;-78
2021/05/23 01:45:29;;;;;;;19.00;8.10;;;10.60;99.90;;;;;;5076507;28;20706;-77
2021/05/23 01:47:56;;;;;;;22.83;7.67;;;10.60;99.90;;;;;;5076926;28;20194;-78
2021/05/23 01:50:24;;;;;;;22.00;7.57;;;10.60;99.90;;;;;;5076154;28;20298;-79
2021/05/23 01:52:54;;;;;;;17.63;7.67;;;10.50;99.90;;;;;;5076220;28;20227;-77
2021/05/23 01:55:22;;;;;;;19.77;7.13;;;10.60;99.90;;;;;;5076118;28;20237;-78
2021/05/23 01:57:49;;;;;;;18.83;7.03;;;10.60;99.90;;;;;;5076137;28;20687;-78
2021/05/23 02:00:19;;;;;;;19.47;6.90;;;10.60;99.90;;;;;;5076261;28;20250;-77
2021/05/23 02:02:45;;;;;;;24.03;7.27;;;10.60;99.90;;;;;;5074331;28;20256;-78
2021/05/23 02:05:13;;;;;;;20.33;6.63;;;10.60;99.90;;;;;;5075342;28;20194;-77
2021/05/23 02:07:39;;;;;;;15.73;6.37;;;10.60;99.90;;;;;;5075263;28;20288;-78
2021/05/23 02:10:08;;;;;;;21.83;6.90;;;10.60;99.90;;;;;;5075330;28;20290;-77
2021/05/23 02:12:34;;;;;;;14.73;6.30;;;10.50;99.90;;;;;;5074984;28;20679;-78
2021/05/23 02:15:03;;;;;;;17.47;6.03;;;10.50;99.90;;;;;;5075457;28;20209;-78
2021/05/23 02:17:33;;;;;;;16.57;6.03;;;10.60;99.90;;;;;;5075190;28;20675;-77
2021/05/23 02:20:00;;;;;;;16.60;6.23;;;10.60;99.90;;;;;;5075506;28;20286;-77
2021/05/23 02:22:26;;;;;;;16.67;6.83;;;10.50;99.90;;;;;;5075310;28;20290;-77
2021/05/23 02:24:53;;;;;;;16.40;6.30;;;10.60;99.90;;;;;;5074869;28;20533;-78
2021/05/23 02:27:19;;;;;;;13.67;5.53;;;10.50;99.90;;;;;;5075603;28;20194;-77
2021/05/23 02:29:45;;;;;;;16.30;5.50;;;10.50;99.90;;;;;;5074986;28;20196;-78
2021/05/23 02:32:12;;;;;;;17.47;5.53;;;10.50;99.90;;;;;;5074794;28;20288;-77
2021/05/23 02:34:45;;;;;;;16.53;5.40;;;10.50;99.90;;;;;;5074405;28;20328;-77
2021/05/23 02:37:12;;;;;;;13.97;4.57;;;10.50;99.90;;;;;;5074904;28;20210;-76
2021/05/23 02:39:38;;;;;;;14.50;4.60;;;10.40;99.90;;;;;;5074626;28;20280;-80
2021/05/23 02:42:05;;;;;;;13.67;4.63;;;10.40;99.90;;;;;;5074429;28;20253;-77
2021/05/23 02:44:31;;;;;;;18.67;4.53;;;10.30;99.90;;;;;;5074649;28;20198;-77
2021/05/23 02:46:57;;;;;;;15.03;4.13;;;10.30;99.90;;;;;;5074372;28;20268;-76
2021/05/23 02:49:25;;;;;;;18.73;3.50;;;10.30;99.90;;;;;;5074207;28;20241;-79
2021/05/23 02:51:51;;;;;;;15.30;4.60;;;10.20;99.90;;;;;;5074730;28;20293;-78
2021/05/23 02:54:17;;;;;;;16.87;4.27;;;10.20;99.90;;;;;;5074235;28;20245;-79
2021/05/23 02:56:44;;;;;;;12.77;4.70;;;10.20;99.90;;;;;;5074487;28;20287;-77
2021/05/23 02:59:10;;;;;;;14.20;4.43;;;10.20;99.90;;;;;;5074367;28;20221;-79
2021/05/23 03:01:36;;;;;;;17.93;4.30;;;10.20;99.90;;;;;;5074241;28;20682;-79
2021/05/23 03:04:03;;;;;;;15.73;5.03;;;10.20;99.90;;;;;;5074392;28;20226;-77
2021/05/23 03:06:30;;;;;;;16.53;4.30;;;10.10;99.90;;;;;;5073971;28;20231;-78
2021/05/23 03:08:57;;;;;;;14.20;4.90;;;10.00;99.90;;;;;;5074272;28;20316;-78
2021/05/23 03:11:23;;;;;;;21.07;4.73;;;10.10;99.90;;;;;;5074116;28;20222;-77
2021/05/23 03:13:49;;;;;;;12.07;4.97;;;10.10;99.90;;;;;;5073570;28;20239;-77
2021/05/23 03:16:16;;;;;;;20.37;5.30;;;10.00;99.90;;;;;;5073727;28;20298;-76
2021/05/23 03:18:42;;;;;;;17.67;4.97;;;10.00;99.90;;;;;;5074106;28;20731;-77
2021/05/23 03:21:08;;;;;;;13.73;5.00;;;10.00;99.90;;;;;;5073727;28;20289;-77
2021/05/23 03:23:36;;;;;;;19.50;5.33;;;10.00;99.90;;;;;;5073440;28;20744;-77
2021/05/23 03:26:02;;;;;;;17.67;5.13;;;10.00;99.90;;;;;;5073601;28;20651;-77
2021/05/23 03:28:29;;;;;;;12.90;5.50;;;10.00;99.90;;;;;;5073503;28;20292;-78
2021/05/23 03:30:55;;;;;;;18.87;5.30;;;10.00;99.90;;;;;;5073644;28;20689;-77
2021/05/23 03:33:21;;;;;;;15.53;5.27;;;9.90;99.90;;;;;;5073264;28;20223;-77
2021/05/23 03:35:48;;;;;;;10.20;5.10;;;9.80;99.90;;;;;;5073593;28;20199;-76
2021/05/23 03:38:14;;;;;;;17.97;5.63;;;9.70;99.90;;;;;;5073318;28;20282;-78
2021/05/23 03:40:42;;;;;;;15.73;5.13;;;9.60;99.90;;;;;;5073503;28;20203;-78
2021/05/23 03:43:09;;;;;;;19.77;5.47;;;9.50;99.90;;;;;;5073360;28;20301;-79
2021/05/23 03:45:35;;;;;;;18.57;4.80;;;9.50;99.90;;;;;;5073578;28;20343;-78
2021/05/23 03:48:02;;;;;;;14.97;5.20;;;9.40;99.90;;;;;;5073116;28;20199;-77
2021/05/23 03:50:28;;;;;;;25.23;5.30;;;9.30;99.90;;;;;;5073333;28;20192;-77
2021/05/23 03:52:56;;;;;;;18.23;5.40;;;9.20;99.90;;;;;;5073046;28;20219;-78
2021/05/23 03:55:25;;;;;;;15.27;5.17;;;9.20;99.90;;;;;;5073109;28;20215;-77
2021/05/23 03:57:52;;;;;;;16.63;4.97;;;9.10;99.90;;;;;;5072879;28;20285;-77
2021/05/23 04:00:20;;;;;;;23.00;4.57;;;9.10;99.90;;;;;;5072908;28;20285;-77
2021/05/23 04:02:50;;;;;;;20.10;5.40;;;9.00;99.90;;;;;;5072762;28;20662;-79
2021/05/23 04:05:17;;;;;;;16.10;5.13;;;9.10;99.90;;;;;;5073364;28;20246;-77
2021/05/23 04:07:44;;;;;;;15.80;4.83;;;9.00;99.90;;;;;;5073285;28;20208;-77
2021/05/23 04:10:13;;;;;;;20.03;4.43;;;9.00;99.90;;;;;;5073092;28;20233;-77
2021/05/23 04:12:42;;;;;;;12.47;4.30;;;8.90;99.90;;;;;;5072869;28;20681;-77
2021/05/23 04:15:11;;;;;;;11.60;3.90;;;8.90;99.90;;;;;;5073168;28;20212;-77
2021/05/23 04:17:38;;;;;;;14.57;4.33;;;8.80;99.90;;;;;;5072640;28;20755;-78
2021/05/23 04:20:06;;;;;;;18.00;4.47;;;8.90;99.90;;;;;;5072973;28;20289;-79
2021/05/23 04:22:32;;;;;;;15.90;4.00;;;8.90;99.90;;;;;;5073036;28;20193;-77
2021/05/23 04:25:01;;;;;;;18.27;3.83;;;8.90;99.90;;;;;;5072128;28;20292;-79
2021/05/23 04:27:27;;;;;;;18.97;3.90;;;9.10;99.90;;;;;;5054994;28;20229;-78
2021/05/23 04:29:54;;;;;;;18.50;3.80;;;9.60;99.90;;;;;;5072879;28;20284;-79
2021/05/23 04:32:21;;;;;;;17.07;3.13;;;10.10;99.90;;;;;;5072704;28;20201;-77
2021/05/23 04:34:48;;;;;;;11.60;2.67;;;10.80;99.90;;;;;;5072473;28;20226;-76
2021/05/23 04:37:15;;;;;;;11.73;2.50;;;11.40;99.90;;;;;;5072458;28;20281;-78
2021/05/23 04:39:42;;;;;;;13.50;2.70;;;12.00;99.90;;;;;;5072459;28;20660;-77
2021/05/23 04:42:08;;;;;;;12.93;2.30;;;12.40;99.90;;;;;;5072258;28;20564;-77
2021/05/23 04:44:35;;;;;;;10.47;2.50;;;13.10;99.90;;;;;;5072625;28;20291;-78
2021/05/23 04:47:01;;;;;;;7.30;2.20;;;13.50;99.90;;;;;;5072653;28;20290;-77
2021/05/23 04:49:29;;;;;;;9.80;1.83;;;13.90;99.90;;;;;;5072199;28;20564;-77
2021/05/23 04:51:56;;;;;;;7.83;1.80;;;14.40;99.90;;;;;;5072455;28;20256;-77
2021/05/23 04:54:23;;;;;;;4.90;1.60;;;15.00;99.90;;;;;;5072260;28;20227;-77
2021/05/23 04:56:49;;;;;;;9.00;1.73;;;15.60;99.90;;;;;;5072548;28;20199;-77
2021/05/23 04:59:16;;;;;;;9.63;2.60;;;15.80;99.90;;;;;;5072503;28;20248;-77
2021/05/23 05:01:42;;;;;;;8.43;2.23;;;16.00;99.90;;;;;;5072603;28;20292;-78
2021/05/23 05:04:08;;;;;;;8.40;2.03;;;16.00;99.90;;;;;;5072304;28;20195;-78
2021/05/23 05:06:36;;;;;;;10.10;1.70;;;15.60;99.90;;;;;;5072221;28;20199;-78
2021/05/23 05:09:02;;;;;;;9.73;2.40;;;14.90;99.90;;;;;;5087884;28;20732;-78
2021/05/23 05:11:28;;;;;;;8.27;1.47;;;14.00;99.90;;;;;;5092053;28;20602;-77
2021/05/23 05:13:55;;;;;;;10.13;1.93;;;13.30;99.90;;;;;;5092397;28;20233;-77
2021/05/23 05:16:21;;;;;;;14.37;1.53;;;12.80;99.90;;;;;;5092419;28;20229;-77
2021/05/23 05:18:47;;;;;;;6.43;1.43;;;13.00;99.90;;;;;;5092299;28;20222;-77
2021/05/23 05:21:14;;;;;;;11.43;2.30;;;13.80;99.90;;;;;;5092008;28;20191;-77
2021/05/23 05:23:42;;;;;;;10.60;2.80;;;14.80;99.90;;;;;;5091597;28;20202;-78
2021/05/23 05:26:08;;;;;;;6.03;1.23;;;15.50;99.90;;;;;;5092289;28;20290;-77
2021/05/23 05:28:34;;;;;;;11.17;1.70;;;15.80;99.90;;;;;;5092189;28;20195;-79
2021/05/23 05:31:01;;;;;;;8.17;2.03;;;16.20;99.90;;;;;;5092528;28;20209;-78
2021/05/23 05:33:27;;;;;;;5.27;1.53;;;16.60;99.90;;;;;;5092000;28;20250;-78
2021/05/23 05:35:53;;;;;;;8.03;2.20;;;17.20;99.90;;;;;;5091888;28;20214;-79
2021/05/23 05:38:20;;;;;;;9.33;2.00;;;17.30;99.90;;;;;;5095797;28;20226;-77
2021/05/23 05:40:47;;;;;;;8.93;1.90;;;16.90;99.90;;;;;;5096025;28;20277;-76
2021/05/23 05:43:14;;;;;;;6.30;1.90;;;15.90;99.90;;;;;;5095243;28;20377;-77
2021/05/23 05:45:40;;;;;;;7.67;1.87;;;16.20;99.90;;;;;;5094610;28;20584;-79
2021/05/23 05:48:07;;;;;;;7.77;1.63;;;16.80;99.90;;;;;;5095432;28;20214;-78
2021/05/23 05:50:33;;;;;;;10.80;2.10;;;17.70;99.90;;;;;;5095319;28;20191;-77
2021/05/23 05:53:00;;;;;;;11.80;2.03;;;18.60;99.90;;;;;;5095556;28;20222;-77
2021/05/23 05:55:26;;;;;;;6.30;1.73;;;19.10;99.90;;;;;;5095565;28;20202;-78
2021/05/23 05:57:53;;;;;;;7.63;1.73;;;19.20;99.90;;;;;;5095662;28;20278;-78
2021/05/23 06:00:21;;;;;;;8.33;2.30;;;19.60;99.90;;;;;;5095792;28;20236;-79
2021/05/23 06:02:47;;;;;;;6.83;2.00;;;20.00;99.90;;;;;;5095517;28;20202;-78
2021/05/23 06:05:14;;;;;;;6.83;1.80;;;20.10;99.90;;;;;;5095334;28;20290;-77
2021/05/23 06:07:42;;;;;;;6.63;2.20;;;20.60;99.90;;;;;;5094423;28;20195;-77
2021/05/23 06:10:09;;;;;;;9.70;2.33;;;21.20;99.90;;;;;;5094976;28;20288;-77
2021/05/23 06:12:36;;;;;;;9.57;2.10;;;21.80;99.90;;;;;;5095152;28;20264;-78
2021/05/23 06:15:04;;;;;;;6.20;2.07;;;22.20;99.90;;;;;;5095115;28;20586;-76
2021/05/23 06:17:30;;;;;;;10.47;2.07;;;21.80;99.90;;;;;;5095139;28;20396;-78
2021/05/23 06:19:56;;;;;;;10.70;2.00;;;21.60;99.90;;;;;;5095020;28;20195;-76
2021/05/23 06:22:23;;;;;;;7.90;1.73;;;21.30;99.90;;;;;;5095150;28;20202;-77
2021/05/23 06:24:49;;;;;;;6.93;2.13;;;21.30;99.90;;;;;;5094900;28;20199;-77
2021/05/23 06:27:16;;;;;;;10.87;2.20;;;21.70;99.90;;;;;;5094750;28;20195;-77
2021/05/23 06:29:43;;;;;;;6.00;2.20;;;22.40;99.90;;;;;;5095033;28;20387;-79
2021/05/23 06:32:10;;;;;;;8.30;2.03;;;22.80;99.90;;;;;;5094139;28;20264;-77
2021/05/23 06:34:37;;;;;;;6.97;2.10;;;23.40;99.90;;;;;;5094345;28;20244;-78
2021/05/23 06:37:03;;;;;;;7.90;1.85;;;23.30;99.90;;;;;;5094886;28;20206;-79
2021/05/23 06:39:30;;;;;;;7.43;1.75;;;23.70;99.90;;;;;;5094455;28;20218;-78
2021/05/23 06:41:56;;;;;;;5.80;2.08;;;23.90;99.90;;;;;;5094776;28;20281;-77
2021/05/23 06:44:22;;;;;;;10.95;2.30;;;24.50;99.90;;;;;;5094789;28;20656;-79
2021/05/23 06:46:49;;;;;;;8.50;1.90;;;24.10;99.90;;;;;;5094530;28;20293;-77
2021/05/23 06:49:16;;;;;;;7.93;1.95;;;23.70;99.90;;;;;;5093481;28;20255;-78
2021/05/23 06:51:43;;;;;;;8.20;2.13;;;23.80;99.90;;;;;;5094699;28;20195;-78
2021/05/23 06:54:10;;;;;;;6.03;1.88;;;23.70;99.90;;;;;;5093839;28;20662;-77
2021/05/23 06:56:36;;;;;;;4.57;1.57;;;23.30;99.90;;;;;;5094443;28;20222;-78
2021/05/23 06:59:03;;;;;;;9.77;2.00;;;23.10;99.90;;;;;;5094473;28;20298;-78
2021/05/23 07:01:31;;;;;;;6.70;1.75;;;23.30;99.90;;;;;;5093975;28;20218;-78
2021/05/23 07:03:58;;;;;;;4.85;1.70;;;23.50;99.90;;;;;;5094477;28;20199;-79
2021/05/23 07:06:25;;;;;;;6.15;1.90;;;24.00;99.90;;;;;;5094347;28;20290;-77
2021/05/23 07:08:51;;;;;;;7.63;1.90;;;24.80;99.90;;;;;;5093544;28;20312;-78
2021/05/23 07:11:18;;;;;;;7.97;1.65;;;25.60;99.90;;;;;;5093993;28;20226;-78
2021/05/23 07:13:44;;;;;;;4.50;1.50;;;25.50;99.90;;;;;;5094046;28;20313;-77
2021/05/23 07:16:11;;;;;;;9.15;2.20;;;25.80;99.90;;;;;;5093754;28;20290;-78
2021/05/23 07:18:37;;;;;;;4.60;1.55;;;26.00;99.90;;;;;;5094022;28;20278;-77
2021/05/23 07:21:04;;;;;;;8.30;1.73;;;26.10;99.90;;;;;;5093791;28;20562;-77
2021/05/23 07:23:31;;;;;;;7.07;1.63;;;24.70;99.90;;;;;;5094113;28;20214;-78
2021/05/23 07:25:58;;;;;;;5.85;1.73;;;25.00;99.90;;;;;;5093918;28;20404;-78
2021/05/23 07:28:25;;;;;;;7.70;1.77;;;25.60;99.90;;;;;;5093320;28;20309;-78
2021/05/23 07:30:52;;;;;;;8.05;1.90;;;25.50;99.90;;;;;;5093252;28;20191;-78
2021/05/23 07:33:18;;;;;;;5.20;1.77;;;23.70;99.90;;;;;;5092808;28;20728;-77
2021/05/23 07:35:45;;;;;;;7.28;1.60;;;23.30;99.90;;;;;;5089142;28;20249;-78
2021/05/23 07:38:12;;;;;;;5.47;1.58;;;23.10;99.90;;;;;;5093329;28;20198;-77
2021/05/23 07:40:39;;;;;;;7.93;1.73;;;23.00;99.90;;;;;;5093548;28;20222;-78
2021/05/23 07:43:05;;;;;;;9.23;1.77;;;22.50;99.90;;;;;;5093657;28;20196;-78
2021/05/23 07:45:32;;;;;;;7.18;1.63;;;23.20;99.90;;;;;;5093301;28;20244;-78
2021/05/23 07:47:59;;;;;;;4.93;1.23;;;23.40;99.90;;;;;;5093613;28;20234;-78
2021/05/23 07:50:26;;;;;;;5.15;1.52;;;24.20;99.90;;;;;;5093388;28;20281;-77
2021/05/23 07:52:52;;;;;;;7.47;1.52;;;23.60;99.90;;;;;;5093085;28;20712;-76
2021/05/23 07:55:18;;;;;;;3.53;1.30;;;23.60;99.90;;;;;;5093159;28;20586;-77
2021/05/23 07:57:46;;;;;;;4.43;1.70;;;23.70;99.90;;;;;;5093246;28;20757;-77
2021/05/23 08:00:14;;;;;;;5.83;1.50;;;22.10;99.90;;;;;;5093109;28;20728;-77
2021/05/23 08:02:40;;;;;;;5.43;1.47;;;20.50;99.90;;;;;;5093366;28;20283;-81
2021/05/23 08:05:08;;;;;;;2.70;1.10;;;19.20;99.90;;;;;;5094163;28;20290;-76
2021/05/23 08:07:34;;;;;;;8.93;1.63;;;18.00;99.90;;;;;;5095856;28;20274;-77
2021/05/23 08:10:01;;;;;;;5.93;1.67;;;17.30;99.90;;;;;;5096421;28;20215;-77
2021/05/23 08:12:27;;;;;;;5.93;1.50;;;17.80;99.90;;;;;;5096630;28;20222;-76
2021/05/23 08:14:54;;;;;;;7.77;1.50;;;17.40;99.90;;;;;;5094138;28;20313;-78
2021/05/23 08:17:21;;;;;;;8.67;1.73;;;16.80;99.90;;;;;;5094460;28;20294;-78
2021/05/23 08:19:47;;;;;;;9.70;1.57;;;16.50;99.90;;;;;;5094202;28;20653;-78
2021/05/23 08:22:13;;;;;;;11.50;1.77;;;16.20;99.90;;;;;;5093052;28;20725;-78
2021/05/23 08:24:39;;;;;;;6.23;1.40;;;16.20;99.90;;;;;;5095622;28;20684;-80
2021/05/23 08:27:06;;;;;;;6.87;1.23;;;17.40;99.90;;;;;;5096439;28;20211;-79
2021/05/23 08:29:32;;;;;;;7.50;1.30;;;18.10;99.90;;;;;;5093144;28;20223;-78
2021/05/23 08:32:00;;;;;;;5.30;1.50;;;19.50;99.90;;;;;;5093388;28;20198;-78
2021/05/23 08:34:28;;;;;;;6.53;1.63;;;21.00;99.90;;;;;;5093156;28;20232;-78
2021/05/23 08:36:54;;;;;;;7.57;1.70;;;22.70;99.90;;;;;;5093383;28;20191;-77
2021/05/23 08:39:20;;;;;;;7.43;1.33;;;21.80;99.90;;;;;;5093185;28;20286;-78
2021/05/23 08:41:48;;;;;;;4.93;1.47;;;21.90;99.90;;;;;;5093105;28;20248;-78
2021/05/23 08:44:19;;;;;;;7.07;1.60;;;22.60;99.90;;;;;;5092175;28;20202;-79
2021/05/23 08:46:47;;;;;;;6.30;1.65;;;23.60;99.90;;;;;;5078167;28;20214;-78
2021/05/23 08:49:16;;;;;;;9.40;1.48;;;24.40;99.90;;;;;;5091749;28;20679;-77
2021/05/23 08:51:43;;;;;;;5.60;1.73;;;23.80;99.90;;;;;;5092575;28;20195;-77
2021/05/23 08:54:09;;;;;;;4.07;1.25;;;23.90;99.90;;;;;;5092646;28;20226;-77
2021/05/23 08:56:36;;;;;;;10.03;1.80;;;22.50;99.90;;;;;;5092742;28;20293;-77
2021/05/23 08:59:03;;;;;;;8.97;1.67;;;20.40;99.90;;;;;;5092880;28;20197;-76
2021/05/23 09:01:30;;;;;;;11.73;1.80;;;18.60;99.90;;;;;;5092323;28;20273;-80
2021/05/23 09:04:00;;;;;;;6.30;1.60;;;17.60;99.90;;;;;;5092627;28;20290;-78
2021/05/23 09:06:28;;;;;;;7.70;1.40;;;16.90;99.90;;;;;;5092325;28;20282;-77
2021/05/23 09:08:59;;;;;;;8.93;1.90;;;16.60;99.90;;;;;;5091758;28;20233;-78
2021/05/23 09:11:26;;;;;;;5.43;1.60;;;18.80;99.90;;;;;;5092370;28;20752;-78
2021/05/23 09:13:54;;;;;;;4.53;1.37;;;19.00;99.90;;;;;;5095941;28;20222;-79
2021/05/23 09:16:21;;;;;;;5.03;1.27;;;18.50;99.90;;;;;;5096393;28;20302;-77
2021/05/23 09:18:48;;;;;;;5.57;1.40;;;18.30;99.90;;;;;;5095558;28;20368;-79
2021/05/23 09:21:17;;;;;;;5.53;1.60;;;18.90;99.90;;;;;;5096087;28;20289;-80
2021/05/23 09:23:49;;;;;;;6.40;1.57;;;19.80;99.90;;;;;;5095647;28;20290;-78
2021/05/23 09:26:17;;;;;;;7.63;1.50;;;21.30;99.90;;;;;;5096312;28;20202;-78
2021/05/23 09:28:43;;;;;;;8.27;1.63;;;22.00;99.90;;;;;;5095975;28;20538;-77
2021/05/23 09:31:18;;;;;;;6.40;1.30;;;22.80;99.90;;;;;;5096134;28;20290;-78
2021/05/23 09:33:46;;;;;;;6.27;1.20;;;21.10;99.90;;;;;;5095173;28;20245;-77
2021/05/23 09:36:14;;;;;;;6.30;1.40;;;19.70;99.90;;;;;;5095762;28;20198;-79
2021/05/23 09:38:49;;;;;;;4.20;1.30;;;18.70;99.90;;;;;;5096024;28;20278;-77
2021/05/23 09:41:22;;;;;;;4.27;1.00;;;19.30;99.90;;;;;;5096069;28;20248;-78
2021/05/23 09:43:48;;;;;;;7.23;1.20;;;19.20;99.90;;;;;;5095345;28;20275;-79
2021/05/23 09:46:15;;;;;;;4.17;1.30;;;19.70;99.90;;;;;;5094996;28;20293;-79
2021/05/23 09:48:49;;;;;;;4.53;1.40;;;21.60;99.90;;;;;;5096008;28;20191;-78
2021/05/23 09:51:18;;;;;;;3.47;1.47;;;22.50;99.90;;;;;;5095994;28;20294;-77
2021/05/23 09:53:57;;;;;;;3.57;1.17;;;23.00;99.90;;;;;;5095543;28;20211;-78
2021/05/23 09:56:30;;;;;;;4.97;1.57;;;22.70;99.90;;;;;;5095098;28;20199;-80
2021/05/23 09:58:57;;;;;;;5.37;1.23;;;21.70;99.90;;;;;;5094683;28;20191;-78
2021/05/23 10:01:28;;;;;;;7.57;1.30;;;20.40;99.90;;;;;;5094690;28;20240;-78
2021/05/23 10:03:56;;;;;;;4.37;1.30;;;18.70;99.90;;;;;;5092451;28;20202;-78
2021/05/23 10:06:27;;;;;;;5.50;1.20;;;18.00;99.90;;;;;;5094791;28;20471;-79
2021/05/23 10:08:54;;;;;;;3.40;1.20;;;17.70;99.90;;;;;;5092857;28;20281;-77
2021/05/23 10:11:21;;;;;;;8.00;1.97;;;17.70;99.90;;;;;;5092843;28;20191;-79
2021/05/23 10:13:48;;;;;;;6.33;1.40;;;18.00;99.90;;;;;;5095115;28;20219;-77
2021/05/23 10:16:16;;;;;;;5.00;1.13;;;17.80;99.90;;;;;;5095072;28;20222;-78
2021/05/23 10:18:44;;;;;;;4.80;1.17;;;17.50;99.90;;;;;;5094811;28;20286;-78
2021/05/23 10:21:12;;;;;;;6.53;1.40;;;17.00;99.90;;;;;;5091750;28;20260;-77
2021/05/23 10:23:43;;;;;;;5.27;1.37;;;16.50;99.90;;;;;;5091304;28;20627;-79
2021/05/23 10:26:13;;;;;;;6.50;1.40;;;16.10;99.90;;;;;;5094827;28;20286;-78
2021/05/23 10:28:41;;;;;;;6.40;1.10;;;15.90;99.90;;;;;;5094585;28;20237;-79
2021/05/23 10:31:09;;;;;;;7.00;1.97;;;15.80;99.90;;;;;;5094584;28;20195;-78
2021/05/23 10:33:36;;;;;;;5.73;1.37;;;15.80;99.90;;;;;;5094195;28;20218;-78
2021/05/23 10:36:05;;;;;;;5.80;1.07;;;17.00;99.90;;;;;;5077415;28;20285;-77
2021/05/23 10:38:32;;;;;;;4.23;1.20;;;19.50;99.90;;;;;;5093810;28;20672;-79
2021/05/23 10:41:00;;;;;;;5.93;1.50;;;20.80;99.90;;;;;;5094877;28;20199;-77
2021/05/23 10:43:28;;;;;;;5.70;1.50;;;20.30;99.90;;;;;;5093858;28;20309;-78
2021/05/23 10:46:06;;;;;;;7.93;1.43;;;20.50;99.90;;;;;;5094834;28;20276;-78
2021/05/23 10:48:34;;;;;;;4.07;1.23;;;21.90;99.90;;;;;;5091358;28;20579;-78
2021/05/23 10:51:10;;;;;;;5.77;1.30;;;22.10;99.90;;;;;;5093942;28;20276;-77
2021/05/23 10:53:37;;;;;;;8.13;1.40;;;22.30;99.90;;;;;;5092989;28;20610;-77
2021/05/23 10:56:04;;;;;;;9.13;1.67;;;22.40;99.90;;;;;;5093257;28;20191;-80
2021/05/23 10:58:31;;;;;;;5.23;1.60;;;23.00;99.90;;;;;;5093658;28;20199;-80
2021/05/23 11:01:00;;;;;;;6.80;1.57;;;22.60;99.90;;;;;;5093305;28;20301;-77
2021/05/23 11:03:27;;;;;;;4.03;1.53;;;21.40;99.90;;;;;;5090099;28;20195;-77
2021/05/23 11:06:02;;;;;;;5.23;1.63;;;20.30;99.90;;;;;;5093911;28;20248;-78
2021/05/23 11:08:30;;;;;;;6.30;1.33;;;19.40;99.90;;;;;;5090308;28;20285;-78
2021/05/23 11:10:56;;;;;;;4.60;1.40;;;19.20;99.90;;;;;;5086849;28;20280;-78
2021/05/23 11:13:31;;;;;;;15.20;1.90;;;18.50;99.90;;;;;;5093460;28;20683;-78
2021/05/23 11:16:10;;;;;;;9.40;1.47;;;19.00;99.90;;;;;;5093904;28;20191;-78
2021/05/23 11:18:36;;;;;;;5.77;1.40;;;20.40;99.90;;;;;;5093821;28;20237;-78
2021/05/23 11:21:06;;;;;;;8.67;1.20;;;20.90;99.90;;;;;;5094214;28;20549;-78
2021/05/23 11:23:42;;;;;;;7.17;1.50;;;21.50;99.90;;;;;;5093565;28;20217;-78
2021/05/23 11:26:11;;;;;;;6.03;1.40;;;21.80;99.90;;;;;;5093589;28;20210;-78
2021/05/23 11:28:38;;;;;;;4.50;1.43;;;21.90;99.90;;;;;;5093988;28;20606;-78
2021/05/23 11:31:04;;;;;;;4.87;1.30;;;21.60;99.90;;;;;;5093634;28;20194;-78
2021/05/23 11:33:31;;;;;;;8.03;1.23;;;21.30;99.90;;;;;;5093530;28;20199;-78
2021/05/23 11:35:57;;;;;;;6.30;1.30;;;21.40;99.90;;;;;;5093261;28;20289;-78
2021/05/23 11:38:35;;;;;;;9.17;1.13;;;22.60;99.90;;;;;;5093634;28;20198;-79
2021/05/23 11:41:02;;;;;;;5.90;1.30;;;23.40;99.90;;;;;;5074183;28;20199;-78
2021/05/23 11:43:28;;;;;;;2.92;1.08;;;23.70;99.90;;;;;;5086705;28;20253;-79
2021/05/23 11:45:56;;;;;;;3.85;1.10;;;23.10;99.90;;;;;;5089885;28;20669;-79
2021/05/23 11:48:35;;;;;;;3.83;1.30;;;22.40;99.90;;;;;;5093417;28;20662;-78
2021/05/23 11:51:03;;;;;;;4.70;1.07;;;22.00;99.90;;;;;;5092477;28;20223;-78
2021/05/23 11:53:42;;;;;;;4.17;1.00;;;21.70;99.90;;;;;;5088493;28;20194;-78
2021/05/23 11:56:13;;;;;;;5.23;1.50;;;21.30;99.90;;;;;;5089425;28;20201;-77
2021/05/23 11:58:43;;;;;;;5.03;1.30;;;20.70;99.90;;;;;;5080609;28;20210;-78
2021/05/23 12:01:16;;;;;;;3.43;1.00;;;20.80;99.90;;;;;;5083143;28;20226;-78
2021/05/23 12:03:53;;;;;;;3.83;1.10;;;20.70;99.90;;;;;;5092387;28;20212;-78
2021/05/23 12:06:21;;;;;;;4.43;1.10;;;20.20;99.90;;;;;;5090694;28;20289;-78
2021/05/23 12:08:49;;;;;;;3.13;1.07;;;21.20;99.90;;;;;;5092478;28;20202;-78
2021/05/23 12:11:15;;;;;;;1.87;0.93;;;22.10;99.90;;;;;;5092135;28;20290;-78
2021/05/23 12:13:44;;;;;;;5.07;1.20;;;22.20;99.90;;;;;;5081033;28;20301;-78
2021/05/23 12:16:13;;;;;;;2.87;1.37;;;22.10;99.90;;;;;;5091479;28;20294;-78
2021/05/23 12:18:42;;;;;;;3.00;0.83;;;21.20;99.90;;;;;;5087322;28;20203;-77
2021/05/23 12:21:12;;;;;;;3.07;1.43;;;21.10;99.90;;;;;;5091894;28;20223;-80
2021/05/23 12:23:40;;;;;;;3.90;1.00;;;20.50;99.90;;;;;;5090046;28;20312;-78
2021/05/23 12:26:09;;;;;;;3.83;1.07;;;20.20;99.90;;;;;;5091908;28;20209;-81
2021/05/23 12:28:37;;;;;;;3.10;1.10;;;19.70;99.90;;;;;;5087923;28;20226;-78
2021/05/23 12:31:06;;;;;;;4.10;1.20;;;19.80;99.90;;;;;;5089326;28;20274;-78
2021/05/23 12:33:33;;;;;;;6.97;1.07;;;20.00;99.90;;;;;;5089279;28;20613;-77
2021/05/23 12:36:11;;;;;;;4.27;1.00;;;20.40;99.90;;;;;;5090169;28;20248;-79
2021/05/23 12:38:38;;;;;;;3.93;0.90;;;20.50;99.90;;;;;;5089281;28;20197;-78
2021/05/23 12:41:07;;;;;;;3.70;1.00;;;20.90;99.90;;;;;;5090107;28;20287;-77
2021/05/23 12:43:35;;;;;;;9.10;1.07;;;21.40;99.90;;;;;;5091693;28;20194;-78
2021/05/23 12:46:04;;;;;;;3.43;1.17;;;21.50;99.90;;;;;;5091440;28;20232;-79
2021/05/23 12:48:32;;;;;;;2.13;1.00;;;21.60;99.90;;;;;;5085839;28;20203;-78